TimeEST,TemperatureF,Dew PointF,Humidity,Sea Level PressureIn,VisibilityMPH,Wind Direction,Wind SpeedMPH,Gust SpeedMPH,PrecipitationIn,Events,Conditions,WindDirDegrees,DateUTC
12:53 AM,71.1,62.1,73,30.08,10.0,NNE,10.4,-,N/A,,Partly Cloudy,20,2012-11-18 05:53:00
1:53 AM,71.1,61.0,70,30.08,10.0,NNE,5.8,-,N/A,,Clear,30,2012-11-18 06:53:00
2:53 AM,66.0,62.1,87,30.07,10.0,NW,8.1,-,N/A,,Partly Cloudy,310,2012-11-18 07:53:00
3:53 AM,64.9,63.0,93,30.07,10.0,NW,5.8,-,N/A,,Scattered Clouds,310,2012-11-18 08:53:00
4:53 AM,64.0,62.1,93,30.07,10.0,NNW,8.1,-,N/A,,Partly Cloudy,330,2012-11-18 09:53:00
5:29 AM,64.4,62.6,94,30.09,9.0,NW,8.1,-,N/A,,Mostly Cloudy,320,2012-11-18 10:29:00
5:53 AM,64.9,63.0,93,30.09,9.0,NW,10.4,-,N/A,,Overcast,320,2012-11-18 10:53:00
6:08 AM,64.4,62.6,94,30.10,9.0,NW,8.1,-,N/A,,Overcast,320,2012-11-18 11:08:00
6:53 AM,66.9,64.9,93,30.10,9.0,North,10.4,19.6,N/A,,Overcast,360,2012-11-18 11:53:00
7:24 AM,68.0,64.4,88,30.11,8.0,North,13.8,19.6,N/A,,Overcast,350,2012-11-18 12:24:00
7:53 AM,68.0,64.9,90,30.12,8.0,North,18.4,23.0,N/A,,Overcast,350,2012-11-18 12:53:00
8:53 AM,70.0,64.9,84,30.13,9.0,North,13.8,23.0,N/A,,Mostly Cloudy,350,2012-11-18 13:53:00
9:26 AM,71.6,64.4,78,30.14,9.0,North,15.0,23.0,N/A,,Overcast,360,2012-11-18 14:26:00
9:33 AM,71.6,64.4,78,30.14,10.0,North,20.7,28.8,N/A,,Mostly Cloudy,350,2012-11-18 14:33:00
9:53 AM,73.0,64.9,76,30.14,10.0,North,20.7,25.3,N/A,,Mostly Cloudy,350,2012-11-18 14:53:00
10:27 AM,71.6,64.4,78,30.14,10.0,North,19.6,28.8,N/A,,Mostly Cloudy,350,2012-11-18 15:27:00
10:53 AM,75.0,64.9,71,30.13,10.0,North,17.3,26.5,N/A,,Mostly Cloudy,350,2012-11-18 15:53:00
11:53 AM,73.9,63.0,68,30.13,10.0,North,21.9,27.6,N/A,,Mostly Cloudy,360,2012-11-18 16:53:00
12:53 PM,73.0,62.1,68,30.11,10.0,North,21.9,29.9,N/A,,Mostly Cloudy,360,2012-11-18 17:53:00
1:53 PM,73.9,63.0,68,30.09,10.0,North,20.7,27.6,N/A,,Partly Cloudy,360,2012-11-18 18:53:00
2:53 PM,73.0,62.1,68,30.10,10.0,North,18.4,26.5,N/A,,Scattered Clouds,360,2012-11-18 19:53:00
3:53 PM,72.0,62.1,71,30.09,10.0,North,19.6,31.1,N/A,,Clear,350,2012-11-18 20:53:00
4:53 PM,69.1,62.1,78,30.10,10.0,North,18.4,26.5,N/A,,Scattered Clouds,350,2012-11-18 21:53:00
5:53 PM,66.9,62.1,84,30.10,10.0,North,15.0,24.2,N/A,,Overcast,360,2012-11-18 22:53:00
6:16 PM,66.2,62.6,88,30.12,10.0,North,16.1,24.2,N/A,,Overcast,350,2012-11-18 23:16:00
6:50 PM,66.2,60.8,83,30.13,10.0,North,11.5,23.0,N/A,,Overcast,350,2012-11-18 23:50:00
6:53 PM,66.9,61.0,81,30.14,10.0,North,13.8,23.0,N/A,,Overcast,350,2012-11-18 23:53:00
7:53 PM,64.9,60.1,84,30.14,10.0,North,18.4,26.5,N/A,,Mostly Cloudy,350,2012-11-19 00:53:00
8:33 PM,64.4,59.0,83,30.15,10.0,North,15.0,24.2,N/A,,Partly Cloudy,360,2012-11-19 01:33:00
8:53 PM,64.9,59.0,81,30.16,10.0,North,17.3,23.0,N/A,,Clear,350,2012-11-19 01:53:00
9:53 PM,64.0,57.0,78,30.16,10.0,North,13.8,-,N/A,,Clear,350,2012-11-19 02:53:00
10:53 PM,62.1,57.0,84,30.16,10.0,NNW,9.2,-,N/A,,Clear,340,2012-11-19 03:53:00
11:43 PM,62.6,57.2,82,30.14,10.0,North,6.9,-,N/A,,Mostly Cloudy,350,2012-11-19 04:43:00
11:53 PM,63.0,57.0,81,30.14,10.0,North,5.8,-,N/A,,Overcast,350,2012-11-19 04:53:00